sensor_id;sensor_type;location;lat;lon;timestamp;pressure;altitude;pressure_sealevel;temperature;humidity
60820;BME280;46641;48.904;9.126;2023-05-09T00:02:32;98840.75;;;19.52;58.03
60820;BME280;46641;48.904;9.126;2023-05-09T00:07:25;98839.50;;;19.48;58.03
60820;BME280;46641;48.904;9.126;2023-05-09T00:12:15;98831.72;;;19.46;57.86
60820;BME280;46641;48.904;9.126;2023-05-09T00:17:06;98836.81;;;19.41;58.07
60820;BME280;46641;48.904;9.126;2023-05-09T00:21:56;98825.56;;;19.39;58.24
60820;BME280;46641;48.904;9.126;2023-05-09T00:26:47;98824.13;;;19.36;58.15
60820;BME280;46641;48.904;9.126;2023-05-09T00:31:37;98817.38;;;19.34;57.96
60820;BME280;46641;48.904;9.126;2023-05-09T00:36:27;98813.88;;;19.33;58.00
60820;BME280;46641;48.904;9.126;2023-05-09T00:41:17;98807.75;;;19.33;58.06
60820;BME280;46641;48.904;9.126;2023-05-09T00:46:08;98804.91;;;19.28;58.03
60820;BME280;46641;48.904;9.126;2023-05-09T00:50:58;98801.44;;;19.27;57.97
60820;BME280;46641;48.904;9.126;2023-05-09T00:55:48;98794.69;;;19.25;58.04
60820;BME280;46641;48.904;9.126;2023-05-09T01:00:39;98794.84;;;19.23;58.08
60820;BME280;46641;48.904;9.126;2023-05-09T01:05:51;98789.75;;;19.22;57.86
60820;BME280;46641;48.904;9.126;2023-05-09T01:11:00;98784.22;;;19.17;58.13
60820;BME280;46641;48.904;9.126;2023-05-09T01:16:00;98791.34;;;19.16;57.86
60820;BME280;46641;48.904;9.126;2023-05-09T01:21:04;98786.44;;;19.13;57.95
60820;BME280;46641;48.904;9.126;2023-05-09T01:26:03;98772.56;;;19.11;57.98
60820;BME280;46641;48.904;9.126;2023-05-09T01:30:54;98787.03;;;19.08;58.04
60820;BME280;46641;48.904;9.126;2023-05-09T01:35:48;98781.31;;;19.05;58.27
60820;BME280;46641;48.904;9.126;2023-05-09T01:40:41;98776.19;;;19.03;58.36
60820;BME280;46641;48.904;9.126;2023-05-09T01:45:33;98775.34;;;19.03;58.35
60820;BME280;46641;48.904;9.126;2023-05-09T01:50:25;98765.78;;;19.02;57.96
60820;BME280;46641;48.904;9.126;2023-05-09T01:55:18;98752.09;;;18.98;58.24
60820;BME280;46641;48.904;9.126;2023-05-09T02:00:11;98755.13;;;18.95;58.13
60820;BME280;46641;48.904;9.126;2023-05-09T02:05:03;98760.00;;;18.91;58.21
60820;BME280;46641;48.904;9.126;2023-05-09T02:09:57;98762.84;;;18.90;58.17
60820;BME280;46641;48.904;9.126;2023-05-09T02:14:47;98764.47;;;18.91;58.45
60820;BME280;46641;48.904;9.126;2023-05-09T02:19:37;98762.84;;;18.90;58.14
60820;BME280;46641;48.904;9.126;2023-05-09T02:24:27;98759.75;;;18.86;58.12
60820;BME280;46641;48.904;9.126;2023-05-09T02:29:20;98758.13;;;18.85;58.20
60820;BME280;46641;48.904;9.126;2023-05-09T02:34:14;98750.34;;;18.84;57.99
60820;BME280;46641;48.904;9.126;2023-05-09T02:39:05;98749.75;;;18.82;58.01
60820;BME280;46641;48.904;9.126;2023-05-09T02:43:56;98744.63;;;18.80;58.23
60820;BME280;46641;48.904;9.126;2023-05-09T02:48:46;98723.63;;;18.79;58.39
60820;BME280;46641;48.904;9.126;2023-05-09T02:53:36;98714.22;;;18.76;58.21
60820;BME280;46641;48.904;9.126;2023-05-09T02:58:27;98718.69;;;18.76;58.24
60820;BME280;46641;48.904;9.126;2023-05-09T03:03:17;98717.66;;;18.77;58.28
60820;BME280;46641;48.904;9.126;2023-05-09T03:08:08;98721.94;;;18.78;58.29
60820;BME280;46641;48.904;9.126;2023-05-09T03:12:58;98725.84;;;18.75;58.08
60820;BME280;46641;48.904;9.126;2023-05-09T03:17:48;98715.03;;;18.77;58.21
60820;BME280;46641;48.904;9.126;2023-05-09T03:22:38;98717.03;;;18.75;57.95
60820;BME280;46641;48.904;9.126;2023-05-09T03:27:29;98714.94;;;18.70;57.89
60820;BME280;46641;48.904;9.126;2023-05-09T03:32:19;98704.53;;;18.68;58.01
60820;BME280;46641;48.904;9.126;2023-05-09T03:37:09;98703.09;;;18.66;58.38
60820;BME280;46641;48.904;9.126;2023-05-09T03:42:00;98715.53;;;18.65;58.51
60820;BME280;46641;48.904;9.126;2023-05-09T03:46:50;98703.28;;;18.64;58.27
60820;BME280;46641;48.904;9.126;2023-05-09T03:51:40;98709.59;;;18.63;58.15
60820;BME280;46641;48.904;9.126;2023-05-09T03:56:30;98714.09;;;18.63;58.29
60820;BME280;46641;48.904;9.126;2023-05-09T04:01:21;98717.94;;;18.60;57.92
60820;BME280;46641;48.904;9.126;2023-05-09T04:06:11;98711.19;;;18.58;58.19
60820;BME280;46641;48.904;9.126;2023-05-09T04:11:01;98696.50;;;18.55;58.17
60820;BME280;46641;48.904;9.126;2023-05-09T04:15:52;98694.88;;;18.54;58.12
60820;BME280;46641;48.904;9.126;2023-05-09T04:20:42;98698.97;;;18.57;58.39
60820;BME280;46641;48.904;9.126;2023-05-09T04:25:32;98695.88;;;18.53;58.28
60820;BME280;46641;48.904;9.126;2023-05-09T04:30:23;98711.59;;;18.55;58.26
60820;BME280;46641;48.904;9.126;2023-05-09T04:35:16;98706.47;;;18.53;58.34
60820;BME280;46641;48.904;9.126;2023-05-09T04:40:06;98719.75;;;18.53;57.90
60820;BME280;46641;48.904;9.126;2023-05-09T04:44:59;98703.84;;;18.53;58.16
60820;BME280;46641;48.904;9.126;2023-05-09T04:49:49;98710.53;;;18.49;58.39
60820;BME280;46641;48.904;9.126;2023-05-09T04:54:39;98711.53;;;18.48;58.17
60820;BME280;46641;48.904;9.126;2023-05-09T04:59:30;98714.41;;;18.47;58.41
60820;BME280;46641;48.904;9.126;2023-05-09T05:04:20;98701.53;;;18.43;58.41
60820;BME280;46641;48.904;9.126;2023-05-09T05:09:11;98700.50;;;18.44;58.49
60820;BME280;46641;48.904;9.126;2023-05-09T05:14:01;98693.38;;;18.45;58.49
60820;BME280;46641;48.904;9.126;2023-05-09T05:18:51;98702.97;;;18.46;58.73
60820;BME280;46641;48.904;9.126;2023-05-09T05:23:42;98706.31;;;17.84;61.81
60820;BME280;46641;48.904;9.126;2023-05-09T05:28:32;98701.22;;;17.82;62.38
60820;BME280;46641;48.904;9.126;2023-05-09T05:33:22;98702.38;;;18.22;60.43
60820;BME280;46641;48.904;9.126;2023-05-09T05:38:12;98695.03;;;18.46;59.38
60820;BME280;46641;48.904;9.126;2023-05-09T05:43:03;98690.38;;;18.55;58.90
60820;BME280;46641;48.904;9.126;2023-05-09T05:47:53;98692.47;;;18.59;58.81
60820;BME280;46641;48.904;9.126;2023-05-09T05:52:45;98690.81;;;18.58;58.56
60820;BME280;46641;48.904;9.126;2023-05-09T05:57:35;98685.94;;;18.62;58.35
60820;BME280;46641;48.904;9.126;2023-05-09T06:02:26;98686.94;;;18.61;58.33
60820;BME280;46641;48.904;9.126;2023-05-09T06:07:17;98684.13;;;18.62;58.43
60820;BME280;46641;48.904;9.126;2023-05-09T06:12:07;98677.78;;;18.63;58.30
60820;BME280;46641;48.904;9.126;2023-05-09T06:16:58;98676.16;;;18.62;58.53
60820;BME280;46641;48.904;9.126;2023-05-09T06:21:48;98674.72;;;18.60;58.73
60820;BME280;46641;48.904;9.126;2023-05-09T06:26:38;98663.50;;;18.64;58.25
60820;BME280;46641;48.904;9.126;2023-05-09T06:31:29;98664.63;;;18.77;57.65
60820;BME280;46641;48.904;9.126;2023-05-09T06:36:19;98661.22;;;18.83;57.70
60820;BME280;46641;48.904;9.126;2023-05-09T06:41:09;98649.00;;;18.88;57.49
60820;BME280;46641;48.904;9.126;2023-05-09T06:46:00;98640.19;;;18.88;57.41
60820;BME280;46641;48.904;9.126;2023-05-09T06:50:50;98649.81;;;18.89;57.44
60820;BME280;46641;48.904;9.126;2023-05-09T06:55:41;98645.34;;;18.96;57.61
60820;BME280;46641;48.904;9.126;2023-05-09T07:00:31;98638.84;;;18.99;57.08
60820;BME280;46641;48.904;9.126;2023-05-09T07:05:21;98638.84;;;18.99;57.45
60820;BME280;46641;48.904;9.126;2023-05-09T07:10:12;98632.31;;;19.01;57.31
60820;BME280;46641;48.904;9.126;2023-05-09T07:15:02;98623.94;;;19.04;57.34
60820;BME280;46641;48.904;9.126;2023-05-09T07:19:52;98620.88;;;19.07;57.30
60820;BME280;46641;48.904;9.126;2023-05-09T07:24:43;98614.78;;;19.13;57.21
60820;BME280;46641;48.904;9.126;2023-05-09T07:29:33;98608.69;;;19.20;57.32
60820;BME280;46641;48.904;9.126;2023-05-09T07:34:23;98599.28;;;19.24;57.10
60820;BME280;46641;48.904;9.126;2023-05-09T07:39:14;98582.16;;;19.26;56.74
60820;BME280;46641;48.904;9.126;2023-05-09T07:44:05;98578.09;;;19.30;57.40
60820;BME280;46641;48.904;9.126;2023-05-09T07:48:56;98573.00;;;19.35;57.01
60820;BME280;46641;48.904;9.126;2023-05-09T07:53:46;98562.38;;;19.42;57.01
60820;BME280;46641;48.904;9.126;2023-05-09T07:58:36;98559.94;;;19.47;56.88
60820;BME280;46641;48.904;9.126;2023-05-09T08:03:26;98552.19;;;19.52;56.65
60820;BME280;46641;48.904;9.126;2023-05-09T08:08:17;98544.63;;;19.56;56.77
60820;BME280;46641;48.904;9.126;2023-05-09T08:13:07;98535.25;;;19.60;56.78
60820;BME280;46641;48.904;9.126;2023-05-09T08:17:57;98527.72;;;19.64;56.90
60820;BME280;46641;48.904;9.126;2023-05-09T08:22:47;98521.16;;;19.73;56.39
60820;BME280;46641;48.904;9.126;2023-05-09T08:27:38;98519.72;;;19.77;56.42
60820;BME280;46641;48.904;9.126;2023-05-09T08:32:28;98507.47;;;19.82;56.41
60820;BME280;46641;48.904;9.126;2023-05-09T08:37:18;98500.72;;;19.87;56.37
60820;BME280;46641;48.904;9.126;2023-05-09T08:42:08;98490.25;;;19.92;56.27
60820;BME280;46641;48.904;9.126;2023-05-09T08:47:03;98488.63;;;19.97;56.34
60820;BME280;46641;48.904;9.126;2023-05-09T08:51:55;98483.53;;;20.02;56.28
60820;BME280;46641;48.904;9.126;2023-05-09T08:56:46;98498.22;;;20.12;56.16
60820;BME280;46641;48.904;9.126;2023-05-09T09:01:36;98495.53;;;20.18;55.97
60820;BME280;46641;48.904;9.126;2023-05-09T09:06:27;98492.00;;;20.24;55.83
60820;BME280;46641;48.904;9.126;2023-05-09T09:11:19;98488.91;;;20.34;55.68
60820;BME280;46641;48.904;9.126;2023-05-09T09:16:17;98478.25;;;20.47;55.29
60820;BME280;46641;48.904;9.126;2023-05-09T09:21:11;98468.00;;;20.58;55.17
60820;BME280;46641;48.904;9.126;2023-05-09T09:26:02;98469.75;;;20.70;55.11
60820;BME280;46641;48.904;9.126;2023-05-09T09:30:56;98453.53;;;20.78;55.14
60820;BME280;46641;48.904;9.126;2023-05-09T09:35:47;98443.47;;;20.87;55.47
60820;BME280;46641;48.904;9.126;2023-05-09T09:40:38;98427.22;;;20.95;55.13
60820;BME280;46641;48.904;9.126;2023-05-09T09:45:29;98422.44;;;21.04;56.58
60820;BME280;46641;48.904;9.126;2023-05-09T09:50:20;98417.25;;;21.16;57.22
60820;BME280;46641;48.904;9.126;2023-05-09T09:55:14;98412.00;;;21.28;57.28
60820;BME280;46641;48.904;9.126;2023-05-09T10:00:05;98394.91;;;21.42;57.29
60820;BME280;46641;48.904;9.126;2023-05-09T10:05:05;98385.38;;;21.53;56.80
60820;BME280;46641;48.904;9.126;2023-05-09T10:09:55;98381.16;;;21.63;57.12
60820;BME280;46641;48.904;9.126;2023-05-09T10:14:46;98373.25;;;21.75;56.83
60820;BME280;46641;48.904;9.126;2023-05-09T10:19:41;98366.13;;;21.87;57.43
60820;BME280;46641;48.904;9.126;2023-05-09T10:29:39;98347.34;;;22.12;57.49
60820;BME280;46641;48.904;9.126;2023-05-09T10:34:31;98345.38;;;22.26;57.73
60820;BME280;46641;48.904;9.126;2023-05-09T10:39:23;98329.97;;;22.40;57.93
60820;BME280;46641;48.904;9.126;2023-05-09T10:44:14;98329.97;;;22.52;57.87
60820;BME280;46641;48.904;9.126;2023-05-09T10:49:04;98323.63;;;22.64;57.84
60820;BME280;46641;48.904;9.126;2023-05-09T10:53:56;98317.50;;;22.76;57.83
60820;BME280;46641;48.904;9.126;2023-05-09T10:58:47;98309.75;;;22.86;57.75
60820;BME280;46641;48.904;9.126;2023-05-09T11:03:54;98295.03;;;22.95;57.44
60820;BME280;46641;48.904;9.126;2023-05-09T11:08:46;98289.94;;;23.05;57.53
60820;BME280;46641;48.904;9.126;2023-05-09T11:13:36;98270.88;;;23.14;57.51
60820;BME280;46641;48.904;9.126;2023-05-09T11:18:31;98254.50;;;23.22;57.32
60820;BME280;46641;48.904;9.126;2023-05-09T11:23:25;98260.03;;;23.32;57.46
60820;BME280;46641;48.904;9.126;2023-05-09T11:28:27;98240.16;;;23.40;57.25
60820;BME280;46641;48.904;9.126;2023-05-09T11:33:22;98222.72;;;23.49;57.07
60820;BME280;46641;48.904;9.126;2023-05-09T11:38:19;98230.09;;;23.59;57.02
60820;BME280;46641;48.904;9.126;2023-05-09T11:43:11;98214.50;;;23.67;56.77
60820;BME280;46641;48.904;9.126;2023-05-09T11:48:07;98215.31;;;23.79;56.56
60820;BME280;46641;48.904;9.126;2023-05-09T11:52:58;98190.28;;;23.86;56.63
60820;BME280;46641;48.904;9.126;2023-05-09T11:57:49;98191.75;;;23.93;56.44
60820;BME280;46641;48.904;9.126;2023-05-09T12:02:42;98191.09;;;24.03;56.64
60820;BME280;46641;48.904;9.126;2023-05-09T12:07:35;98183.50;;;24.12;56.36
60820;BME280;46641;48.904;9.126;2023-05-09T12:12:26;98174.25;;;24.19;56.36
60820;BME280;46641;48.904;9.126;2023-05-09T12:17:16;98160.47;;;24.27;56.38
60820;BME280;46641;48.904;9.126;2023-05-09T12:22:07;98153.66;;;24.37;56.01
60820;BME280;46641;48.904;9.126;2023-05-09T12:26:58;98145.47;;;24.43;55.76
60820;BME280;46641;48.904;9.126;2023-05-09T12:31:49;98132.66;;;24.45;55.72
60820;BME280;46641;48.904;9.126;2023-05-09T12:36:44;98127.06;;;24.47;56.02
60820;BME280;46641;48.904;9.126;2023-05-09T12:41:49;98130.56;;;24.47;55.94
60820;BME280;46641;48.904;9.126;2023-05-09T12:46:40;98124.47;;;24.52;56.00
60820;BME280;46641;48.904;9.126;2023-05-09T12:51:30;98099.63;;;24.57;55.91
60820;BME280;46641;48.904;9.126;2023-05-09T12:56:20;98090.63;;;24.63;55.53
60820;BME280;46641;48.904;9.126;2023-05-09T13:01:14;98087.22;;;24.67;55.48
60820;BME280;46641;48.904;9.126;2023-05-09T13:06:10;98076.31;;;24.74;55.51
60820;BME280;46641;48.904;9.126;2023-05-09T13:11:02;98062.44;;;24.77;55.20
60820;BME280;46641;48.904;9.126;2023-05-09T13:15:52;98060.88;;;24.81;55.07
60820;BME280;46641;48.904;9.126;2023-05-09T13:20:43;98060.59;;;24.83;55.07
60820;BME280;46641;48.904;9.126;2023-05-09T13:25:33;98052.63;;;24.88;55.19
60820;BME280;46641;48.904;9.126;2023-05-09T13:30:24;98044.09;;;24.91;55.08
60820;BME280;46641;48.904;9.126;2023-05-09T13:35:15;98035.00;;;24.92;54.92
60820;BME280;46641;48.904;9.126;2023-05-09T13:40:05;98036.13;;;24.96;54.59
60820;BME280;46641;48.904;9.126;2023-05-09T13:44:56;98018.50;;;25.00;54.61
60820;BME280;46641;48.904;9.126;2023-05-09T13:49:46;98015.84;;;25.05;54.40
60820;BME280;46641;48.904;9.126;2023-05-09T13:54:36;98007.31;;;25.08;54.45
60820;BME280;46641;48.904;9.126;2023-05-09T13:59:27;98002.53;;;25.10;54.07
60820;BME280;46641;48.904;9.126;2023-05-09T14:04:17;97996.19;;;25.16;53.92
60820;BME280;46641;48.904;9.126;2023-05-09T14:09:07;97999.41;;;25.18;53.88
60820;BME280;46641;48.904;9.126;2023-05-09T14:13:58;97985.50;;;25.22;53.77
60820;BME280;46641;48.904;9.126;2023-05-09T14:18:48;97975.13;;;25.25;53.73
60820;BME280;46641;48.904;9.126;2023-05-09T14:23:38;97968.47;;;25.33;53.46
60820;BME280;46641;48.904;9.126;2023-05-09T14:28:28;97965.00;;;25.37;52.97
60820;BME280;46641;48.904;9.126;2023-05-09T14:33:19;97965.81;;;25.38;53.08
60820;BME280;46641;48.904;9.126;2023-05-09T14:38:09;97959.41;;;25.44;53.03
60820;BME280;46641;48.904;9.126;2023-05-09T14:43:01;97950.06;;;25.47;52.68
60820;BME280;46641;48.904;9.126;2023-05-09T14:47:51;97949.56;;;25.50;52.53
60820;BME280;46641;48.904;9.126;2023-05-09T14:52:42;97942.31;;;25.50;52.45
60820;BME280;46641;48.904;9.126;2023-05-09T14:57:33;97937.25;;;25.54;52.26
60820;BME280;46641;48.904;9.126;2023-05-09T15:02:23;97936.44;;;25.53;52.19
60820;BME280;46641;48.904;9.126;2023-05-09T15:07:13;97922.81;;;25.55;52.09
60820;BME280;46641;48.904;9.126;2023-05-09T15:12:04;97918.25;;;25.55;52.06
60820;BME280;46641;48.904;9.126;2023-05-09T15:16:54;97911.25;;;25.54;51.99
60820;BME280;46641;48.904;9.126;2023-05-09T15:21:48;97905.88;;;25.54;52.04
60820;BME280;46641;48.904;9.126;2023-05-09T15:26:38;97900.81;;;25.53;51.96
60820;BME280;46641;48.904;9.126;2023-05-09T15:31:31;97896.25;;;25.53;52.05
60820;BME280;46641;48.904;9.126;2023-05-09T15:36:21;97887.13;;;25.49;49.23
60820;BME280;46641;48.904;9.126;2023-05-09T15:41:11;97887.25;;;24.95;51.57
60820;BME280;46641;48.904;9.126;2023-05-09T15:46:02;97882.72;;;25.33;50.77
60820;BME280;46641;48.904;9.126;2023-05-09T15:50:52;97872.66;;;25.50;50.78
60820;BME280;46641;48.904;9.126;2023-05-09T15:55:43;97876.16;;;25.56;50.40
60820;BME280;46641;48.904;9.126;2023-05-09T16:00:33;97881.25;;;25.57;50.29
60820;BME280;46641;48.904;9.126;2023-05-09T16:05:23;97868.38;;;25.54;50.10
60820;BME280;46641;48.904;9.126;2023-05-09T16:10:14;97867.56;;;25.54;50.42
60820;BME280;46641;48.904;9.126;2023-05-09T16:15:05;97867.03;;;25.52;50.30
60820;BME280;46641;48.904;9.126;2023-05-09T16:19:56;97854.16;;;25.49;50.40
60820;BME280;46641;48.904;9.126;2023-05-09T16:24:47;97857.09;;;25.47;50.39
60820;BME280;46641;48.904;9.126;2023-05-09T16:29:38;97853.88;;;25.45;50.40
60820;BME280;46641;48.904;9.126;2023-05-09T16:34:28;97844.47;;;25.42;50.48
60820;BME280;46641;48.904;9.126;2023-05-09T16:39:18;97838.03;;;25.38;50.11
60820;BME280;46641;48.904;9.126;2023-05-09T16:44:08;97826.75;;;25.36;50.35
60820;BME280;46641;48.904;9.126;2023-05-09T16:48:59;97834.00;;;25.36;50.26
60820;BME280;46641;48.904;9.126;2023-05-09T16:53:49;97830.22;;;25.32;50.21
60820;BME280;46641;48.904;9.126;2023-05-09T16:58:39;97836.09;;;25.29;50.18
60820;BME280;46641;48.904;9.126;2023-05-09T17:03:30;97835.81;;;25.25;50.07
60820;BME280;46641;48.904;9.126;2023-05-09T17:08:21;97831.78;;;25.23;50.28
60820;BME280;46641;48.904;9.126;2023-05-09T17:13:11;97838.44;;;25.20;50.00
60820;BME280;46641;48.904;9.126;2023-05-09T17:18:01;97843.53;;;25.16;49.99
60820;BME280;46641;48.904;9.126;2023-05-09T17:22:52;97847.53;;;25.14;49.94
60820;BME280;46641;48.904;9.126;2023-05-09T17:27:42;97855.47;;;25.09;49.86
60820;BME280;46641;48.904;9.126;2023-05-09T17:32:33;97856.25;;;25.04;49.78
60820;BME280;46641;48.904;9.126;2023-05-09T17:37:24;97870.16;;;25.01;49.80
60820;BME280;46641;48.904;9.126;2023-05-09T17:42:14;97880.56;;;24.98;49.93
60820;BME280;46641;48.904;9.126;2023-05-09T17:47:05;97869.81;;;24.92;49.56
60820;BME280;46641;48.904;9.126;2023-05-09T17:51:55;97873.53;;;24.86;50.41
60820;BME280;46641;48.904;9.126;2023-05-09T17:56:46;97876.44;;;24.80;49.99
60820;BME280;46641;48.904;9.126;2023-05-09T18:01:40;97879.06;;;24.75;49.76
60820;BME280;46641;48.904;9.126;2023-05-09T18:06:30;97889.69;;;24.69;50.04
60820;BME280;46641;48.904;9.126;2023-05-09T18:11:20;97889.41;;;24.66;49.77
60820;BME280;46641;48.904;9.126;2023-05-09T18:16:11;97893.91;;;24.60;49.54
60820;BME280;46641;48.904;9.126;2023-05-09T18:21:02;97894.66;;;24.56;49.58
60820;BME280;46641;48.904;9.126;2023-05-09T18:25:53;97893.78;;;24.50;49.45
60820;BME280;46641;48.904;9.126;2023-05-09T18:30:44;97898.31;;;24.44;49.68
60820;BME280;46641;48.904;9.126;2023-05-09T18:35:34;97893.47;;;24.41;49.63
60820;BME280;46641;48.904;9.126;2023-05-09T18:40:24;97902.19;;;24.37;49.69
60820;BME280;46641;48.904;9.126;2023-05-09T18:45:15;97910.97;;;24.32;49.31
60820;BME280;46641;48.904;9.126;2023-05-09T18:50:05;97907.44;;;24.26;49.33
60820;BME280;46641;48.904;9.126;2023-05-09T18:54:56;97917.03;;;24.22;49.51
60820;BME280;46641;48.904;9.126;2023-05-09T18:59:47;97917.75;;;24.18;49.27
60820;BME280;46641;48.904;9.126;2023-05-09T19:04:37;97918.53;;;24.13;49.52
60820;BME280;46641;48.904;9.126;2023-05-09T19:09:27;97918.22;;;24.10;49.38
60820;BME280;46641;48.904;9.126;2023-05-09T19:14:19;97935.00;;;24.05;49.42
60820;BME280;46641;48.904;9.126;2023-05-09T19:19:09;97930.66;;;23.99;49.22
60820;BME280;46641;48.904;9.126;2023-05-09T19:24:01;97933.81;;;23.96;49.93
60820;BME280;46641;48.904;9.126;2023-05-09T19:28:52;97927.84;;;23.89;49.65
60820;BME280;46641;48.904;9.126;2023-05-09T19:33:43;97931.25;;;23.84;49.77
60820;BME280;46641;48.904;9.126;2023-05-09T19:38:39;97931.22;;;23.79;49.97
60820;BME280;46641;48.904;9.126;2023-05-09T19:43:29;97941.00;;;23.73;49.91
60820;BME280;46641;48.904;9.126;2023-05-09T19:48:20;97944.16;;;23.70;49.69
60820;BME280;46641;48.904;9.126;2023-05-09T19:53:10;97936.03;;;23.65;49.83
60820;BME280;46641;48.904;9.126;2023-05-09T19:58:01;97932.50;;;23.60;49.92
60820;BME280;46641;48.904;9.126;2023-05-09T20:02:51;97936.47;;;23.57;50.04
60820;BME280;46641;48.904;9.126;2023-05-09T20:07:41;97936.38;;;23.52;50.00
60820;BME280;46641;48.904;9.126;2023-05-09T20:12:31;97931.53;;;23.49;50.46
60820;BME280;46641;48.904;9.126;2023-05-09T20:17:21;97927.75;;;23.45;50.34
60820;BME280;46641;48.904;9.126;2023-05-09T20:22:12;97928.50;;;23.40;50.46
60820;BME280;46641;48.904;9.126;2023-05-09T20:27:02;97920.97;;;23.37;50.09
60820;BME280;46641;48.904;9.126;2023-05-09T20:31:52;97931.34;;;23.33;50.36
60820;BME280;46641;48.904;9.126;2023-05-09T20:36:46;97926.97;;;23.27;50.54
60820;BME280;46641;48.904;9.126;2023-05-09T20:41:39;97933.81;;;23.23;50.49
60820;BME280;46641;48.904;9.126;2023-05-09T20:46:30;97937.56;;;23.22;50.35
60820;BME280;46641;48.904;9.126;2023-05-09T20:51:20;97930.28;;;23.18;49.99
60820;BME280;46641;48.904;9.126;2023-05-09T20:56:10;97928.09;;;23.15;50.60
60820;BME280;46641;48.904;9.126;2023-05-09T21:01:00;97926.13;;;23.10;50.42
60820;BME280;46641;48.904;9.126;2023-05-09T21:05:51;97922.34;;;23.06;50.38
60820;BME280;46641;48.904;9.126;2023-05-09T21:10:41;97922.81;;;23.03;50.28
60820;BME280;46641;48.904;9.126;2023-05-09T21:15:31;97913.69;;;22.99;50.22
60820;BME280;46641;48.904;9.126;2023-05-09T21:20:22;97912.78;;;22.93;50.52
60820;BME280;46641;48.904;9.126;2023-05-09T21:25:12;97900.69;;;22.91;50.55
60820;BME280;46641;48.904;9.126;2023-05-09T21:30:03;97904.91;;;22.86;50.48
60820;BME280;46641;48.904;9.126;2023-05-09T21:34:53;97903.78;;;22.82;50.64
60820;BME280;46641;48.904;9.126;2023-05-09T21:39:43;97905.88;;;22.80;50.58
60820;BME280;46641;48.904;9.126;2023-05-09T21:44:34;97903.13;;;22.75;50.46
60820;BME280;46641;48.904;9.126;2023-05-09T21:49:26;97904.41;;;22.73;50.90
60820;BME280;46641;48.904;9.126;2023-05-09T21:54:17;97909.44;;;22.69;51.07
60820;BME280;46641;48.904;9.126;2023-05-09T21:59:08;97909.31;;;22.64;50.91
60820;BME280;46641;48.904;9.126;2023-05-09T22:03:58;97910.59;;;22.61;50.70
60820;BME280;46641;48.904;9.126;2023-05-09T22:08:48;97907.63;;;22.58;51.11
60820;BME280;46641;48.904;9.126;2023-05-09T22:13:40;97908.91;;;22.55;51.22
60820;BME280;46641;48.904;9.126;2023-05-09T22:18:30;97907.75;;;22.51;51.21
60820;BME280;46641;48.904;9.126;2023-05-09T22:23:20;97906.63;;;22.47;51.16
60820;BME280;46641;48.904;9.126;2023-05-09T22:28:11;97906.31;;;22.44;51.03
60820;BME280;46641;48.904;9.126;2023-05-09T22:33:01;97902.25;;;22.41;51.19
60820;BME280;46641;48.904;9.126;2023-05-09T22:37:51;97901.91;;;22.37;51.07
60820;BME280;46641;48.904;9.126;2023-05-09T22:42:42;97900.78;;;22.33;50.90
60820;BME280;46641;48.904;9.126;2023-05-09T22:47:32;97911.13;;;22.30;51.03
60820;BME280;46641;48.904;9.126;2023-05-09T22:52:22;97912.63;;;22.26;51.30
60820;BME280;46641;48.904;9.126;2023-05-09T22:57:12;97907.75;;;22.23;50.96
60820;BME280;46641;48.904;9.126;2023-05-09T23:02:03;97915.19;;;22.21;51.33
60820;BME280;46641;48.904;9.126;2023-05-09T23:06:53;97919.41;;;22.16;51.37
60820;BME280;46641;48.904;9.126;2023-05-09T23:11:44;97918.78;;;22.14;51.58
60820;BME280;46641;48.904;9.126;2023-05-09T23:16:34;97922.16;;;22.10;51.40
60820;BME280;46641;48.904;9.126;2023-05-09T23:21:24;97926.09;;;22.07;51.79
60820;BME280;46641;48.904;9.126;2023-05-09T23:26:14;97924.72;;;22.05;51.40
60820;BME280;46641;48.904;9.126;2023-05-09T23:31:05;97924.38;;;22.01;51.31
60820;BME280;46641;48.904;9.126;2023-05-09T23:35:55;97924.03;;;21.98;51.39
60820;BME280;46641;48.904;9.126;2023-05-09T23:40:46;97929.84;;;21.94;52.00
60820;BME280;46641;48.904;9.126;2023-05-09T23:45:36;97932.03;;;21.86;52.12
60820;BME280;46641;48.904;9.126;2023-05-09T23:50:26;97934.25;;;21.77;52.52
60820;BME280;46641;48.904;9.126;2023-05-09T23:55:16;97933.69;;;21.63;52.47
